createdAt,value
2022-09-17T00:01:27.200Z,4.57
2022-09-17T00:03:57.303Z,3.57
2022-09-17T00:06:25.652Z,5.40
2022-09-17T00:08:53.821Z,3.60
2022-09-17T00:11:27.016Z,6.07
2022-09-17T00:13:55.105Z,3.70
2022-09-17T00:16:23.376Z,4.50
2022-09-17T00:18:50.249Z,4.23
2022-09-17T00:21:19.141Z,4.80
2022-09-17T00:23:46.196Z,5.00
2022-09-17T00:26:13.353Z,4.83
2022-09-17T00:28:41.863Z,4.63
2022-09-17T00:31:10.227Z,4.83
2022-09-17T00:33:38.520Z,3.50
2022-09-17T00:36:06.905Z,6.07
2022-09-17T00:38:34.812Z,5.73
2022-09-17T00:41:02.926Z,5.63
2022-09-17T00:43:44.931Z,4.63
2022-09-17T00:46:35.701Z,4.47
2022-09-17T00:49:06.543Z,4.70
2022-09-17T00:52:04.723Z,4.00
2022-09-17T00:54:33.414Z,3.90
2022-09-17T00:57:00.480Z,3.90
2022-09-17T00:59:28.156Z,6.17
2022-09-17T01:01:55.196Z,4.87
2022-09-17T01:04:24.607Z,4.07
2022-09-17T01:07:31.627Z,6.17
2022-09-17T01:10:21.143Z,4.03
2022-09-17T01:13:01.706Z,4.57
2022-09-17T01:15:47.817Z,5.17
2022-09-17T01:18:21.836Z,4.07
2022-09-17T01:21:10.234Z,3.40
2022-09-17T01:24:15.428Z,4.00
2022-09-17T01:26:59.056Z,5.33
2022-09-17T01:29:40.056Z,3.90
2022-09-17T01:32:25.574Z,4.70
2022-09-17T01:35:08.338Z,6.17
2022-09-17T01:38:06.601Z,5.37
2022-09-17T01:40:36.171Z,4.80
2022-09-17T01:43:28.289Z,3.80
2022-09-17T01:46:09.971Z,3.30
2022-09-17T01:48:43.067Z,6.30
2022-09-17T01:51:14.832Z,3.90
2022-09-17T01:54:00.525Z,5.87
2022-09-17T01:56:36.476Z,4.07
2022-09-17T01:59:18.794Z,7.13
2022-09-17T02:01:50.272Z,5.53
2022-09-17T02:04:23.216Z,3.70
2022-09-17T02:06:58.639Z,5.00
2022-09-17T02:09:33.553Z,3.80
2022-09-17T02:12:04.487Z,5.60
2022-09-17T02:14:42.374Z,3.87
2022-09-17T02:17:23.917Z,4.53
2022-09-17T02:19:51.239Z,2.90
2022-09-17T02:22:34.380Z,3.43
2022-09-17T02:25:16.896Z,5.13
2022-09-17T02:28:30.454Z,4.50
2022-09-17T02:30:57.370Z,5.53
2022-09-17T02:33:26.375Z,6.30
2022-09-17T02:35:53.581Z,3.97
2022-09-17T02:38:26.581Z,5.03
2022-09-17T02:41:16.259Z,3.50
2022-09-17T02:44:15.321Z,3.73
2022-09-17T02:47:01.345Z,4.43
2022-09-17T02:49:50.458Z,4.53
2022-09-17T02:52:55.019Z,6.90
2022-09-17T02:55:47.566Z,4.27
2022-09-17T02:58:17.071Z,4.20
2022-09-17T03:00:46.187Z,4.20
2022-09-17T03:03:20.870Z,3.83
2022-09-17T03:05:50.012Z,6.00
2022-09-17T03:08:20.197Z,4.77
2022-09-17T03:10:49.230Z,5.30
2022-09-17T03:13:16.400Z,5.80
2022-09-17T03:15:43.534Z,3.90
2022-09-17T03:18:10.648Z,4.00
2022-09-17T03:20:37.635Z,12.00
2022-09-17T03:23:04.774Z,5.30
2022-09-17T03:25:31.806Z,5.90
2022-09-17T03:27:58.621Z,4.73
2022-09-17T03:30:25.578Z,3.33
2022-09-17T03:32:52.587Z,6.37
2022-09-17T03:35:19.620Z,6.37
2022-09-17T03:37:47.458Z,2.90
2022-09-17T03:40:14.436Z,6.13
2022-09-17T03:42:41.591Z,4.00
2022-09-17T03:45:09.835Z,5.43
2022-09-17T03:47:37.507Z,6.27
2022-09-17T03:50:06.156Z,7.83
2022-09-17T03:52:34.389Z,4.27
2022-09-17T03:55:01.248Z,7.20
2022-09-17T03:57:28.005Z,7.53
2022-09-17T03:59:55.061Z,3.97
2022-09-17T04:02:22.183Z,4.13
2022-09-17T04:04:49.169Z,3.90
2022-09-17T04:07:16.001Z,4.47
2022-09-17T04:09:42.833Z,6.07
2022-09-17T04:12:09.666Z,4.83
2022-09-17T04:14:36.517Z,5.67
2022-09-17T04:17:03.396Z,3.87
2022-09-17T04:19:30.294Z,6.43
2022-09-17T04:21:57.068Z,6.00
2022-09-17T04:24:23.966Z,3.67
2022-09-17T04:26:50.752Z,5.10
2022-09-17T04:29:17.771Z,4.67
2022-09-17T04:31:44.805Z,4.13
2022-09-17T04:34:11.600Z,4.50
2022-09-17T04:36:38.397Z,4.23
2022-09-17T04:39:05.285Z,6.00
2022-09-17T04:41:32.254Z,5.23
2022-09-17T04:43:59.079Z,4.03
2022-09-17T04:46:25.942Z,4.93
2022-09-17T04:48:52.777Z,4.60
2022-09-17T04:51:19.578Z,4.77
2022-09-17T04:53:46.311Z,3.37
2022-09-17T04:56:13.403Z,4.50
2022-09-17T04:58:40.530Z,6.53
2022-09-17T05:01:07.640Z,4.80
2022-09-17T05:03:35.513Z,4.57
2022-09-17T05:06:02.919Z,9.63
2022-09-17T05:08:29.899Z,4.23
2022-09-17T05:10:56.948Z,5.57
2022-09-17T05:13:24.041Z,5.40
2022-09-17T05:15:51.081Z,5.13
2022-09-17T05:18:17.889Z,5.70
2022-09-17T05:20:44.681Z,4.70
2022-09-17T05:23:11.566Z,4.80
2022-09-17T05:25:38.400Z,5.37
2022-09-17T05:28:05.547Z,4.10
2022-09-17T05:30:32.923Z,5.83
2022-09-17T05:33:05.662Z,4.97
2022-09-17T05:35:33.853Z,3.23
2022-09-17T05:38:03.409Z,8.87
2022-09-17T05:40:31.335Z,5.10
2022-09-17T05:43:03.081Z,5.50
2022-09-17T05:45:30.599Z,6.53
2022-09-17T05:47:58.718Z,3.60
2022-09-17T05:50:26.699Z,3.33
2022-09-17T05:52:54.640Z,2.10
2022-09-17T05:55:23.760Z,7.77
2022-09-17T05:57:50.927Z,4.33
2022-09-17T06:00:18.915Z,9.60
2022-09-17T06:02:45.963Z,8.73
2022-09-17T06:05:12.791Z,20.20
2022-09-17T06:07:39.605Z,4.20
2022-09-17T06:10:08.404Z,5.37
2022-09-17T06:12:35.689Z,4.23
2022-09-17T06:15:04.390Z,1.87
2022-09-17T06:17:35.318Z,2.43
2022-09-17T06:20:04.102Z,3.33
2022-09-17T06:22:31.305Z,3.33
2022-09-17T06:25:03.889Z,3.10
2022-09-17T06:27:34.229Z,6.00
2022-09-17T06:30:01.733Z,4.83
2022-09-17T06:32:29.262Z,6.20
2022-09-17T06:34:57.382Z,4.33
2022-09-17T06:37:31.752Z,3.80
2022-09-17T06:39:59.511Z,4.07
2022-09-17T06:42:28.583Z,3.20
2022-09-17T06:44:59.754Z,4.60
2022-09-17T06:47:28.347Z,4.90
2022-09-17T06:49:57.080Z,2.57
2022-09-17T06:52:24.101Z,5.03
2022-09-17T06:54:50.977Z,3.50
2022-09-17T06:57:17.955Z,5.07
2022-09-17T06:59:45.092Z,3.90
2022-09-17T07:02:12.126Z,7.00
2022-09-17T07:04:38.958Z,4.70
2022-09-17T07:07:05.831Z,4.90
2022-09-17T07:09:32.812Z,5.23
2022-09-17T07:11:59.884Z,3.67
2022-09-17T07:14:27.013Z,8.20
2022-09-17T07:16:53.932Z,5.80
2022-09-17T07:19:20.916Z,2.67
2022-09-17T07:21:49.203Z,4.73
2022-09-17T07:24:17.201Z,4.07
2022-09-17T07:26:44.359Z,6.53
2022-09-17T07:29:12.320Z,3.33
2022-09-17T07:31:39.189Z,3.25
2022-09-17T07:34:05.991Z,3.63
2022-09-17T07:36:32.806Z,5.47
2022-09-17T07:38:59.887Z,7.00
2022-09-17T07:41:26.730Z,4.63
2022-09-17T07:43:56.929Z,4.43
2022-09-17T07:46:23.916Z,2.72
2022-09-17T07:48:51.731Z,4.78
2022-09-17T07:51:24.449Z,2.72
2022-09-17T07:53:55.867Z,4.17
2022-09-17T07:56:24.133Z,2.50
2022-09-17T07:58:51.421Z,2.37
2022-09-17T08:01:21.252Z,4.00
2022-09-17T08:03:50.937Z,4.07
2022-09-17T08:06:20.792Z,3.33
2022-09-17T08:08:48.144Z,2.53
2022-09-17T08:11:32.450Z,6.23
2022-09-17T08:14:04.920Z,3.17
2022-09-17T08:16:31.961Z,3.50
2022-09-17T08:18:58.944Z,3.20
2022-09-17T08:21:28.017Z,2.25
2022-09-17T08:23:55.130Z,3.80
2022-09-17T08:26:23.633Z,4.30
2022-09-17T08:28:55.025Z,3.90
2022-09-17T08:31:24.282Z,2.55
2022-09-17T08:33:51.665Z,3.33
2022-09-17T08:36:21.171Z,3.93
2022-09-17T08:38:52.120Z,3.83
2022-09-17T08:41:57.330Z,5.72
2022-09-17T08:44:34.134Z,3.53
2022-09-17T08:47:12.605Z,4.97
2022-09-17T08:49:50.980Z,2.60
2022-09-17T08:52:31.305Z,3.33
2022-09-17T08:55:26.320Z,4.00
2022-09-17T08:58:16.624Z,2.17
2022-09-17T09:00:55.719Z,2.55
2022-09-17T09:03:56.762Z,5.20
2022-09-17T09:06:33.498Z,5.93
2022-09-17T09:09:05.328Z,9.10
2022-09-17T09:11:33.170Z,4.55
2022-09-17T09:14:24.514Z,2.88
2022-09-17T09:16:54.041Z,5.70
2022-09-17T09:19:27.382Z,5.45
2022-09-17T09:22:30.254Z,4.03
2022-09-17T09:25:23.585Z,3.72
2022-09-17T09:28:04.980Z,4.15
2022-09-17T09:31:05.244Z,2.95
2022-09-17T09:33:35.963Z,3.03
2022-09-17T09:36:06.290Z,3.17
2022-09-17T09:38:37.082Z,5.03
2022-09-17T09:41:24.236Z,3.60
2022-09-17T09:44:05.002Z,2.53
2022-09-17T09:46:58.125Z,5.78
2022-09-17T09:49:43.314Z,3.78
2022-09-17T09:52:10.475Z,4.20
2022-09-17T09:55:04.646Z,2.65
2022-09-17T09:58:19.635Z,2.65
2022-09-17T10:00:47.750Z,5.80
2022-09-17T10:03:46.116Z,6.57
2022-09-17T10:06:15.083Z,1.67
2022-09-17T10:09:02.068Z,1.92
2022-09-17T10:11:33.116Z,2.80
2022-09-17T10:14:27.023Z,2.33
2022-09-17T10:17:23.352Z,2.10
2022-09-17T10:20:05.166Z,2.70
2022-09-17T10:22:35.675Z,2.63
2022-09-17T10:25:05.783Z,4.70
2022-09-17T10:27:34.021Z,2.58
2022-09-17T10:30:10.186Z,3.03
2022-09-17T10:32:37.034Z,2.70
2022-09-17T10:35:23.856Z,2.17
2022-09-17T10:37:53.034Z,1.87
2022-09-17T10:40:19.905Z,1.50
2022-09-17T10:43:11.036Z,1.48
2022-09-17T10:45:43.387Z,1.55
2022-09-17T10:48:20.447Z,1.05
2022-09-17T10:50:55.780Z,2.25
2022-09-17T10:53:24.953Z,0.82
2022-09-17T10:56:03.820Z,0.98
2022-09-17T10:58:54.891Z,3.47
2022-09-17T11:01:34.078Z,1.20
2022-09-17T11:04:16.154Z,1.20
2022-09-17T11:06:51.871Z,2.75
2022-09-17T11:09:37.811Z,1.60
2022-09-17T11:12:08.031Z,1.70
2022-09-17T11:15:13.753Z,2.92
2022-09-17T11:18:04.872Z,0.85
2022-09-17T11:20:31.684Z,2.55
2022-09-17T11:23:04.620Z,4.40
2022-09-17T11:25:56.103Z,3.05
2022-09-17T11:28:59.265Z,2.92
2022-09-17T11:31:45.933Z,1.70
2022-09-17T11:34:21.596Z,4.23
2022-09-17T11:37:10.677Z,2.10
2022-09-17T11:39:55.534Z,1.40
2022-09-17T11:42:28.443Z,2.63
2022-09-17T11:44:58.229Z,2.25
2022-09-17T11:47:36.010Z,1.40
2022-09-17T11:50:19.811Z,2.00
2022-09-17T11:53:15.521Z,2.53
2022-09-17T11:55:50.620Z,2.42
2022-09-17T11:58:29.669Z,1.75
2022-09-17T12:01:05.735Z,1.33
2022-09-17T12:03:43.057Z,1.92
2022-09-17T12:06:16.395Z,1.42
2022-09-17T12:08:53.377Z,2.70
2022-09-17T12:11:27.361Z,2.17
2022-09-17T12:14:36.831Z,3.60
2022-09-17T12:17:06.228Z,2.25
2022-09-17T12:19:46.340Z,1.95
2022-09-17T12:22:23.883Z,1.35
2022-09-17T12:24:51.838Z,2.60
2022-09-17T12:27:33.353Z,2.05
2022-09-17T12:30:13.508Z,2.22
2022-09-17T12:32:58.488Z,1.52
2022-09-17T12:35:59.698Z,3.30
2022-09-17T12:38:52.387Z,1.67
2022-09-17T12:41:54.786Z,2.53
2022-09-17T12:44:40.176Z,2.22
2022-09-17T12:47:45.934Z,1.60
2022-09-17T12:50:49.870Z,2.13
2022-09-17T12:53:42.039Z,3.65
2022-09-17T12:56:31.094Z,2.80
2022-09-17T12:59:00.979Z,4.00
2022-09-17T13:01:31.639Z,1.60
2022-09-17T13:04:56.864Z,1.98
2022-09-17T13:07:43.084Z,1.40
2022-09-17T13:10:47.035Z,3.00
2022-09-17T13:13:31.877Z,2.00
2022-09-17T13:16:19.932Z,3.35
2022-09-17T13:21:51.825Z,2.00
2022-09-17T13:24:22.611Z,4.47
2022-09-17T13:26:49.716Z,2.85
2022-09-17T13:29:45.091Z,2.22
2022-09-17T13:32:36.135Z,1.60
2022-09-17T13:35:11.463Z,3.83
2022-09-17T13:37:53.081Z,2.17
2022-09-17T13:40:35.009Z,2.17
2022-09-17T13:43:08.037Z,2.75
2022-09-17T13:46:00.799Z,1.88
2022-09-17T13:48:34.620Z,1.60
2022-09-17T13:51:31.261Z,2.65
2022-09-17T13:54:06.768Z,2.33
2022-09-17T13:56:48.528Z,2.25
2022-09-17T13:59:20.791Z,2.75
2022-09-17T14:02:02.310Z,1.70
2022-09-17T14:04:51.233Z,2.08
2022-09-17T14:07:24.295Z,2.75
2022-09-17T14:09:56.647Z,2.45
2022-09-17T14:12:53.999Z,2.53
2022-09-17T14:15:42.075Z,2.35
2022-09-17T14:18:27.614Z,2.97
2022-09-17T14:21:33.564Z,2.10
2022-09-17T14:24:19.079Z,4.10
2022-09-17T14:26:54.498Z,5.00
2022-09-17T14:29:52.849Z,3.83
2022-09-17T14:32:32.266Z,2.58
2022-09-17T14:35:17.886Z,2.05
2022-09-17T14:37:52.177Z,3.67
2022-09-17T14:40:20.728Z,2.78
2022-09-17T14:42:52.457Z,3.08
2022-09-17T14:45:42.606Z,5.03
2022-09-17T14:48:25.573Z,3.30
2022-09-17T14:50:52.717Z,3.28
2022-09-17T14:53:21.109Z,3.97
2022-09-17T14:55:50.674Z,4.15
2022-09-17T14:58:37.199Z,3.22
2022-09-17T15:01:05.411Z,3.22
2022-09-17T15:03:32.386Z,5.05
2022-09-17T15:05:59.468Z,3.55
2022-09-17T15:08:30.453Z,3.38
2022-09-17T15:11:09.708Z,3.80
2022-09-17T15:13:50.359Z,5.78
2022-09-17T15:16:21.992Z,7.78
2022-09-17T15:18:52.717Z,5.22
2022-09-17T15:21:45.320Z,4.70
2022-09-17T15:24:15.225Z,4.28
2022-09-17T15:26:45.198Z,4.10
2022-09-17T15:29:14.289Z,4.88
2022-09-17T15:31:41.410Z,7.45
2022-09-17T15:34:12.360Z,5.13
2022-09-17T15:36:39.423Z,6.57
2022-09-17T15:39:29.331Z,7.88
2022-09-17T15:41:57.086Z,6.95
2022-09-17T15:44:30.262Z,6.65
2022-09-17T15:47:39.177Z,6.03
2022-09-17T15:50:17.473Z,6.85
2022-09-17T15:52:44.933Z,7.53
2022-09-17T15:55:34.694Z,8.52
2022-09-17T15:58:05.489Z,7.80
2022-09-17T16:00:32.817Z,12.88
2022-09-17T16:03:22.008Z,6.10
2022-09-17T16:05:51.818Z,6.15
2022-09-17T16:08:22.929Z,8.48
2022-09-17T16:10:49.958Z,7.25
2022-09-17T16:13:16.898Z,7.57
2022-09-17T16:15:44.302Z,8.15
2022-09-17T16:18:14.899Z,11.80
2022-09-17T16:20:41.940Z,6.95
2022-09-17T16:23:08.928Z,7.75
2022-09-17T16:25:37.990Z,8.07
2022-09-17T16:28:12.328Z,8.90
2022-09-17T16:30:43.006Z,8.18
2022-09-17T16:33:12.523Z,7.93
2022-09-17T16:35:39.304Z,9.38
2022-09-17T16:38:06.287Z,6.60
2022-09-17T16:40:33.306Z,7.07
2022-09-17T16:43:02.282Z,6.75
2022-09-17T16:45:30.771Z,10.45
2022-09-17T16:47:58.345Z,7.20
2022-09-17T16:50:25.569Z,10.17
2022-09-17T16:52:53.548Z,6.53
2022-09-17T16:55:21.934Z,9.97
2022-09-17T16:57:49.486Z,7.50
2022-09-17T17:00:19.874Z,11.40
2022-09-17T17:02:53.687Z,9.67
2022-09-17T17:05:20.616Z,8.33
2022-09-17T17:07:47.611Z,8.87
2022-09-17T17:10:14.628Z,8.70
2022-09-17T17:12:41.452Z,8.70
2022-09-17T17:15:09.428Z,8.53
2022-09-17T17:17:37.155Z,10.13
2022-09-17T17:20:10.172Z,10.90
2022-09-17T17:22:38.305Z,11.93
2022-09-17T17:25:06.786Z,12.67
2022-09-17T17:27:34.826Z,12.70
2022-09-17T17:30:04.491Z,13.53
2022-09-17T17:32:37.140Z,13.57
2022-09-17T17:35:06.061Z,11.90
2022-09-17T17:37:32.883Z,15.87
2022-09-17T17:40:00.124Z,16.63
2022-09-17T17:42:27.204Z,13.00
2022-09-17T17:44:55.591Z,17.70
2022-09-17T17:47:22.625Z,24.30
2022-09-17T17:49:49.426Z,30.00
2022-09-17T17:52:16.312Z,26.77
2022-09-17T17:54:43.141Z,28.47
2022-09-17T17:57:11.372Z,28.83
2022-09-17T17:59:38.505Z,28.07
2022-09-17T18:02:05.674Z,28.77
2022-09-17T18:04:33.120Z,28.43
2022-09-17T18:07:00.124Z,28.00
2022-09-17T18:09:27.002Z,23.17
2022-09-17T18:11:54.392Z,20.90
2022-09-17T18:14:21.397Z,23.13
2022-09-17T18:16:49.038Z,18.40
2022-09-17T18:19:15.888Z,19.70
2022-09-17T18:21:42.735Z,18.73
2022-09-17T18:24:11.624Z,17.73
2022-09-17T18:26:38.480Z,17.27
2022-09-17T18:29:08.026Z,14.13
2022-09-17T18:31:36.038Z,14.23
2022-09-17T18:34:04.756Z,16.10
2022-09-17T18:36:33.332Z,15.80
2022-09-17T18:39:56.445Z,15.07
2022-09-17T18:41:49.044Z,16.87
2022-09-17T18:44:16.215Z,17.03
2022-09-17T18:46:43.209Z,18.27
2022-09-17T18:49:10.313Z,13.53
2022-09-17T18:51:37.991Z,13.37
2022-09-17T18:54:04.799Z,17.73
2022-09-17T18:56:35.911Z,13.33
2022-09-17T18:59:07.806Z,14.73
2022-09-17T19:01:35.829Z,14.03
2022-09-17T19:04:03.459Z,13.90
2022-09-17T19:06:32.287Z,14.97
2022-09-17T19:09:01.195Z,17.77
2022-09-17T19:11:28.495Z,16.50
2022-09-17T19:13:55.792Z,15.10
2022-09-17T19:16:22.904Z,13.47
2022-09-17T19:18:49.857Z,14.60
2022-09-17T19:21:21.541Z,14.63
2022-09-17T19:23:50.362Z,17.50
2022-09-17T19:26:19.932Z,16.70
2022-09-17T19:28:47.261Z,18.37
2022-09-17T19:31:16.955Z,17.23
2022-09-17T19:33:45.001Z,15.63
2022-09-17T19:36:14.980Z,18.77
2022-09-17T19:38:42.026Z,18.83
2022-09-17T19:41:14.147Z,20.30
2022-09-17T19:43:41.475Z,18.87
2022-09-17T19:46:15.316Z,17.93
2022-09-17T19:48:47.322Z,18.77
2022-09-17T19:51:15.152Z,20.40
2022-09-17T19:53:42.260Z,18.90
2022-09-17T19:56:15.411Z,20.10
2022-09-17T19:58:42.622Z,21.83
2022-09-17T20:01:10.230Z,19.17
2022-09-17T20:03:41.912Z,20.80
2022-09-17T20:06:12.235Z,22.27
2022-09-17T20:08:50.585Z,23.90
2022-09-17T20:11:22.041Z,25.93
2022-09-17T20:13:49.307Z,27.50
2022-09-17T20:16:21.714Z,25.30
2022-09-17T20:18:49.683Z,24.60
2022-09-17T20:21:31.041Z,23.93
2022-09-17T20:23:58.869Z,24.37
2022-09-17T20:26:27.234Z,25.63
2022-09-17T20:28:55.373Z,24.47
2022-09-17T20:31:24.952Z,23.03
2022-09-17T20:33:54.567Z,26.37
2022-09-17T20:36:24.365Z,26.00
2022-09-17T20:39:14.199Z,27.23
2022-09-17T20:41:40.259Z,26.53
2022-09-17T20:44:07.860Z,28.93
2022-09-17T20:46:34.926Z,25.13
2022-09-17T20:49:01.991Z,32.67
2022-09-17T20:51:30.625Z,33.23
2022-09-17T20:53:57.926Z,29.20
2022-09-17T20:56:30.305Z,29.23
2022-09-17T20:59:07.654Z,28.37
2022-09-17T21:01:37.635Z,28.47
2022-09-17T21:04:07.127Z,29.00
2022-09-17T21:06:40.268Z,27.17
2022-09-17T21:09:10.258Z,25.47
2022-09-17T21:11:37.889Z,28.43
2022-09-17T21:14:05.054Z,25.13
2022-09-17T21:16:32.091Z,28.07
2022-09-17T21:19:04.856Z,24.87
2022-09-17T21:21:35.779Z,29.63
2022-09-17T21:24:06.503Z,26.83
2022-09-17T21:26:34.487Z,26.90
2022-09-17T21:29:01.672Z,25.03
2022-09-17T21:31:33.388Z,31.40
2022-09-17T21:34:08.424Z,25.10
2022-09-17T21:36:37.513Z,25.20
2022-09-17T21:39:07.269Z,21.07
2022-09-17T21:41:37.546Z,21.70
2022-09-17T21:44:06.909Z,20.33
2022-09-17T21:46:35.735Z,18.23
2022-09-17T21:49:03.786Z,18.03
2022-09-17T21:51:37.284Z,14.80
2022-09-17T21:54:07.432Z,15.87
2022-09-17T21:56:34.791Z,12.87
2022-09-17T21:59:10.922Z,16.07
2022-09-17T22:01:40.590Z,18.73
2022-09-17T22:04:10.681Z,12.77
2022-09-17T22:06:38.188Z,13.27
2022-09-17T22:09:07.508Z,11.93
2022-09-17T22:11:37.083Z,13.10
2022-09-17T22:14:08.807Z,11.33
2022-09-17T22:16:38.764Z,13.17
2022-09-17T22:19:06.885Z,10.40
2022-09-17T22:21:37.394Z,8.97
2022-09-17T22:24:05.559Z,9.23
2022-09-17T22:26:37.619Z,7.57
2022-09-17T22:29:07.354Z,9.67
2022-09-17T22:31:36.213Z,9.47
2022-09-17T22:34:07.973Z,7.87
2022-09-17T22:36:35.150Z,6.77
2022-09-17T22:39:02.007Z,7.33
2022-09-17T22:41:31.778Z,7.30
2022-09-17T22:44:00.270Z,6.67
2022-09-17T22:46:33.561Z,10.77
2022-09-17T22:49:00.640Z,12.50
2022-09-17T22:51:29.652Z,7.60
2022-09-17T22:53:58.170Z,5.97
2022-09-17T22:56:27.029Z,6.83
2022-09-17T22:58:55.378Z,7.47
2022-09-17T23:01:24.954Z,9.70
2022-09-17T23:03:52.715Z,8.80
2022-09-17T23:06:23.733Z,10.30
2022-09-17T23:08:51.719Z,9.70
2022-09-17T23:11:30.992Z,7.77
2022-09-17T23:14:03.386Z,7.27
2022-09-17T23:16:37.046Z,8.47
2022-09-17T23:19:05.311Z,6.83
2022-09-17T23:21:38.843Z,7.93
2022-09-17T23:24:05.903Z,8.10
2022-09-17T23:26:33.366Z,8.83
2022-09-17T23:29:04.838Z,11.80
2022-09-17T23:31:34.954Z,7.60
2022-09-17T23:34:02.515Z,11.50
2022-09-17T23:36:31.042Z,9.50
2022-09-17T23:38:59.224Z,9.43
2022-09-17T23:41:31.922Z,12.10
2022-09-17T23:44:01.553Z,8.50
2022-09-17T23:46:32.550Z,10.90
2022-09-17T23:48:59.787Z,13.63
2022-09-17T23:51:30.648Z,7.87
2022-09-17T23:53:58.638Z,10.03
2022-09-17T23:56:28.348Z,11.67
2022-09-17T23:58:56.904Z,9.03
